sensor_id;sensor_type;location;lat;lon;timestamp;P1;durP1;ratioP1;P2;durP2;ratioP2
47337;SDS011;33069;51.970;5.892;2022-12-18T00:01:43;146.93;;;60.40;;
47337;SDS011;33069;51.970;5.892;2022-12-18T00:04:15;134.07;;;59.22;;
47337;SDS011;33069;51.970;5.892;2022-12-18T00:06:49;137.90;;;59.92;;
47337;SDS011;33069;51.970;5.892;2022-12-18T00:09:14;139.93;;;61.92;;
47337;SDS011;33069;51.970;5.892;2022-12-18T00:14:43;133.02;;;60.20;;
47337;SDS011;33069;51.970;5.892;2022-12-18T00:17:09;138.23;;;58.33;;
47337;SDS011;33069;51.970;5.892;2022-12-18T00:19:35;138.75;;;59.47;;
47337;SDS011;33069;51.970;5.892;2022-12-18T00:22:00;137.15;;;58.40;;
47337;SDS011;33069;51.970;5.892;2022-12-18T00:24:26;111.47;;;55.50;;
47337;SDS011;33069;51.970;5.892;2022-12-18T00:26:51;123.50;;;54.58;;
47337;SDS011;33069;51.970;5.892;2022-12-18T00:29:17;124.85;;;58.70;;
47337;SDS011;33069;51.970;5.892;2022-12-18T00:31:43;111.25;;;57.90;;
47337;SDS011;33069;51.970;5.892;2022-12-18T00:34:12;107.32;;;51.92;;
47337;SDS011;33069;51.970;5.892;2022-12-18T00:36:38;113.93;;;56.67;;
47337;SDS011;33069;51.970;5.892;2022-12-18T00:39:05;114.53;;;55.63;;
47337;SDS011;33069;51.970;5.892;2022-12-18T00:41:31;112.35;;;55.70;;
47337;SDS011;33069;51.970;5.892;2022-12-18T00:44:16;125.95;;;59.83;;
47337;SDS011;33069;51.970;5.892;2022-12-18T00:46:43;124.15;;;60.05;;
47337;SDS011;33069;51.970;5.892;2022-12-18T00:49:10;127.60;;;59.28;;
47337;SDS011;33069;51.970;5.892;2022-12-18T00:51:37;116.03;;;56.08;;
47337;SDS011;33069;51.970;5.892;2022-12-18T00:54:03;121.55;;;58.42;;
47337;SDS011;33069;51.970;5.892;2022-12-18T00:56:29;123.63;;;61.22;;
47337;SDS011;33069;51.970;5.892;2022-12-18T00:58:54;108.90;;;56.35;;
47337;SDS011;33069;51.970;5.892;2022-12-18T01:01:20;102.50;;;53.85;;
47337;SDS011;33069;51.970;5.892;2022-12-18T01:03:46;113.38;;;55.88;;
47337;SDS011;33069;51.970;5.892;2022-12-18T01:06:12;100.70;;;53.15;;
47337;SDS011;33069;51.970;5.892;2022-12-18T01:08:39;104.85;;;53.38;;
47337;SDS011;33069;51.970;5.892;2022-12-18T01:14:27;100.57;;;51.03;;
47337;SDS011;33069;51.970;5.892;2022-12-18T01:16:52;102.53;;;53.88;;
47337;SDS011;33069;51.970;5.892;2022-12-18T01:19:18;89.95;;;48.70;;
47337;SDS011;33069;51.970;5.892;2022-12-18T01:21:44;99.57;;;54.25;;
47337;SDS011;33069;51.970;5.892;2022-12-18T01:24:09;96.78;;;49.47;;
47337;SDS011;33069;51.970;5.892;2022-12-18T01:26:37;94.07;;;51.10;;
47337;SDS011;33069;51.970;5.892;2022-12-18T01:29:03;88.47;;;47.88;;
47337;SDS011;33069;51.970;5.892;2022-12-18T01:31:29;82.90;;;46.20;;
47337;SDS011;33069;51.970;5.892;2022-12-18T01:33:57;86.95;;;47.65;;
47337;SDS011;33069;51.970;5.892;2022-12-18T01:36:29;87.00;;;47.60;;
47337;SDS011;33069;51.970;5.892;2022-12-18T01:38:58;83.32;;;46.63;;
47337;SDS011;33069;51.970;5.892;2022-12-18T01:41:27;88.85;;;46.92;;
47337;SDS011;33069;51.970;5.892;2022-12-18T01:44:59;78.15;;;47.83;;
47337;SDS011;33069;51.970;5.892;2022-12-18T01:47:21;90.38;;;49.10;;
47337;SDS011;33069;51.970;5.892;2022-12-18T01:53:04;79.28;;;44.22;;
47337;SDS011;33069;51.970;5.892;2022-12-18T01:55:47;83.22;;;47.25;;
47337;SDS011;33069;51.970;5.892;2022-12-18T01:58:15;81.20;;;46.20;;
47337;SDS011;33069;51.970;5.892;2022-12-18T02:00:41;71.38;;;44.17;;
47337;SDS011;33069;51.970;5.892;2022-12-18T02:03:07;79.15;;;45.40;;
47337;SDS011;33069;51.970;5.892;2022-12-18T02:05:40;80.65;;;47.85;;
47337;SDS011;33069;51.970;5.892;2022-12-18T02:08:10;83.35;;;47.45;;
47337;SDS011;33069;51.970;5.892;2022-12-18T02:25:13;84.70;;;45.70;;
47337;SDS011;33069;51.970;5.892;2022-12-18T02:27:50;77.47;;;44.83;;
47337;SDS011;33069;51.970;5.892;2022-12-18T02:30:17;77.25;;;42.95;;
47337;SDS011;33069;51.970;5.892;2022-12-18T02:32:46;78.97;;;43.97;;
47337;SDS011;33069;51.970;5.892;2022-12-18T02:35:19;71.38;;;43.22;;
47337;SDS011;33069;51.970;5.892;2022-12-18T02:37:49;85.22;;;46.03;;
47337;SDS011;33069;51.970;5.892;2022-12-18T02:40:15;79.60;;;43.53;;
47337;SDS011;33069;51.970;5.892;2022-12-18T02:42:43;88.88;;;46.08;;
47337;SDS011;33069;51.970;5.892;2022-12-18T02:45:09;81.40;;;43.67;;
47337;SDS011;33069;51.970;5.892;2022-12-18T02:47:36;82.70;;;44.35;;
47337;SDS011;33069;51.970;5.892;2022-12-18T02:58:57;72.05;;;43.13;;
47337;SDS011;33069;51.970;5.892;2022-12-18T03:02:17;71.70;;;41.47;;
47337;SDS011;33069;51.970;5.892;2022-12-18T03:04:26;69.50;;;38.03;;
47337;SDS011;33069;51.970;5.892;2022-12-18T03:06:58;73.03;;;40.75;;
47337;SDS011;33069;51.970;5.892;2022-12-18T03:09:38;77.30;;;42.13;;
47337;SDS011;33069;51.970;5.892;2022-12-18T03:12:10;64.70;;;40.10;;
47337;SDS011;33069;51.970;5.892;2022-12-18T03:14:50;75.70;;;43.53;;
47337;SDS011;33069;51.970;5.892;2022-12-18T03:17:23;76.22;;;42.45;;
47337;SDS011;33069;51.970;5.892;2022-12-18T03:19:51;72.03;;;43.22;;
47337;SDS011;33069;51.970;5.892;2022-12-18T03:22:21;69.40;;;40.75;;
47337;SDS011;33069;51.970;5.892;2022-12-18T03:24:48;71.28;;;42.67;;
47337;SDS011;33069;51.970;5.892;2022-12-18T03:27:14;74.13;;;41.65;;
47337;SDS011;33069;51.970;5.892;2022-12-18T03:29:44;68.95;;;40.33;;
47337;SDS011;33069;51.970;5.892;2022-12-18T03:32:21;71.03;;;42.75;;
47337;SDS011;33069;51.970;5.892;2022-12-18T03:34:53;70.90;;;41.45;;
47337;SDS011;33069;51.970;5.892;2022-12-18T03:37:23;72.35;;;40.08;;
47337;SDS011;33069;51.970;5.892;2022-12-18T03:39:49;71.05;;;40.42;;
47337;SDS011;33069;51.970;5.892;2022-12-18T03:42:15;68.75;;;40.55;;
47337;SDS011;33069;51.970;5.892;2022-12-18T03:48:03;67.25;;;39.08;;
47337;SDS011;33069;51.970;5.892;2022-12-18T03:53:21;60.70;;;38.72;;
47337;SDS011;33069;51.970;5.892;2022-12-18T03:55:49;52.58;;;36.83;;
47337;SDS011;33069;51.970;5.892;2022-12-18T03:58:17;66.20;;;39.92;;
47337;SDS011;33069;51.970;5.892;2022-12-18T04:00:48;62.60;;;39.20;;
47337;SDS011;33069;51.970;5.892;2022-12-18T04:03:16;55.88;;;35.40;;
47337;SDS011;33069;51.970;5.892;2022-12-18T04:05:44;60.20;;;38.40;;
47337;SDS011;33069;51.970;5.892;2022-12-18T04:08:12;49.63;;;33.80;;
47337;SDS011;33069;51.970;5.892;2022-12-18T04:10:38;51.78;;;33.67;;
47337;SDS011;33069;51.970;5.892;2022-12-18T04:13:04;48.40;;;34.30;;
47337;SDS011;33069;51.970;5.892;2022-12-18T04:15:29;47.08;;;32.13;;
47337;SDS011;33069;51.970;5.892;2022-12-18T04:17:59;48.85;;;32.75;;
47337;SDS011;33069;51.970;5.892;2022-12-18T04:20:25;47.95;;;32.05;;
47337;SDS011;33069;51.970;5.892;2022-12-18T04:22:50;50.30;;;33.30;;
47337;SDS011;33069;51.970;5.892;2022-12-18T04:25:16;49.35;;;32.28;;
47337;SDS011;33069;51.970;5.892;2022-12-18T04:27:42;52.60;;;34.60;;
47337;SDS011;33069;51.970;5.892;2022-12-18T04:30:08;52.90;;;34.78;;
47337;SDS011;33069;51.970;5.892;2022-12-18T04:32:34;50.03;;;35.17;;
47337;SDS011;33069;51.970;5.892;2022-12-18T04:35:00;50.65;;;31.85;;
47337;SDS011;33069;51.970;5.892;2022-12-18T04:37:26;49.17;;;34.63;;
47337;SDS011;33069;51.970;5.892;2022-12-18T04:39:52;44.97;;;32.50;;
47337;SDS011;33069;51.970;5.892;2022-12-18T04:42:17;49.20;;;33.33;;
47337;SDS011;33069;51.970;5.892;2022-12-18T04:44:43;49.80;;;33.92;;
47337;SDS011;33069;51.970;5.892;2022-12-18T04:47:09;52.35;;;33.72;;
47337;SDS011;33069;51.970;5.892;2022-12-18T04:53:03;47.38;;;32.78;;
47337;SDS011;33069;51.970;5.892;2022-12-18T04:55:29;46.58;;;32.00;;
47337;SDS011;33069;51.970;5.892;2022-12-18T04:57:55;47.80;;;32.30;;
47337;SDS011;33069;51.970;5.892;2022-12-18T05:00:21;47.72;;;31.95;;
47337;SDS011;33069;51.970;5.892;2022-12-18T05:02:47;47.40;;;32.33;;
47337;SDS011;33069;51.970;5.892;2022-12-18T05:05:13;49.08;;;31.65;;
47337;SDS011;33069;51.970;5.892;2022-12-18T05:07:38;47.75;;;31.98;;
47337;SDS011;33069;51.970;5.892;2022-12-18T05:10:04;44.95;;;32.92;;
47337;SDS011;33069;51.970;5.892;2022-12-18T05:12:30;44.33;;;32.30;;
47337;SDS011;33069;51.970;5.892;2022-12-18T05:14:56;46.13;;;30.58;;
47337;SDS011;33069;51.970;5.892;2022-12-18T05:17:22;43.08;;;30.70;;
47337;SDS011;33069;51.970;5.892;2022-12-18T05:19:47;43.67;;;32.42;;
47337;SDS011;33069;51.970;5.892;2022-12-18T05:22:13;44.30;;;32.05;;
47337;SDS011;33069;51.970;5.892;2022-12-18T05:24:39;38.65;;;29.02;;
47337;SDS011;33069;51.970;5.892;2022-12-18T05:29:58;37.58;;;27.30;;
47337;SDS011;33069;51.970;5.892;2022-12-18T05:32:24;41.08;;;30.10;;
47337;SDS011;33069;51.970;5.892;2022-12-18T05:34:50;41.13;;;32.05;;
47337;SDS011;33069;51.970;5.892;2022-12-18T05:37:15;45.38;;;31.63;;
47337;SDS011;33069;51.970;5.892;2022-12-18T05:39:42;46.78;;;33.58;;
47337;SDS011;33069;51.970;5.892;2022-12-18T05:42:08;40.00;;;30.70;;
47337;SDS011;33069;51.970;5.892;2022-12-18T05:44:34;45.88;;;31.05;;
47337;SDS011;33069;51.970;5.892;2022-12-18T05:46:59;42.05;;;29.98;;
47337;SDS011;33069;51.970;5.892;2022-12-18T05:49:25;45.97;;;28.55;;
47337;SDS011;33069;51.970;5.892;2022-12-18T05:51:51;42.45;;;30.60;;
47337;SDS011;33069;51.970;5.892;2022-12-18T05:54:16;41.90;;;30.95;;
47337;SDS011;33069;51.970;5.892;2022-12-18T05:56:42;39.70;;;28.85;;
47337;SDS011;33069;51.970;5.892;2022-12-18T05:59:08;35.78;;;27.90;;
47337;SDS011;33069;51.970;5.892;2022-12-18T06:01:34;44.90;;;31.42;;
47337;SDS011;33069;51.970;5.892;2022-12-18T06:04:00;41.03;;;31.58;;
47337;SDS011;33069;51.970;5.892;2022-12-18T06:06:26;39.97;;;29.67;;
47337;SDS011;33069;51.970;5.892;2022-12-18T06:08:53;44.50;;;31.98;;
47337;SDS011;33069;51.970;5.892;2022-12-18T06:11:21;35.80;;;28.90;;
47337;SDS011;33069;51.970;5.892;2022-12-18T06:13:52;41.75;;;31.30;;
47337;SDS011;33069;51.970;5.892;2022-12-18T06:16:18;41.55;;;31.92;;
47337;SDS011;33069;51.970;5.892;2022-12-18T06:18:44;44.20;;;32.20;;
47337;SDS011;33069;51.970;5.892;2022-12-18T06:21:10;40.42;;;28.88;;
47337;SDS011;33069;51.970;5.892;2022-12-18T06:23:35;45.58;;;31.88;;
47337;SDS011;33069;51.970;5.892;2022-12-18T06:26:05;43.17;;;30.92;;
47337;SDS011;33069;51.970;5.892;2022-12-18T06:28:32;41.53;;;30.02;;
47337;SDS011;33069;51.970;5.892;2022-12-18T06:34:08;39.80;;;29.25;;
47337;SDS011;33069;51.970;5.892;2022-12-18T06:36:33;41.90;;;31.02;;
47337;SDS011;33069;51.970;5.892;2022-12-18T06:38:59;44.00;;;31.00;;
47337;SDS011;33069;51.970;5.892;2022-12-18T06:41:25;42.10;;;29.95;;
47337;SDS011;33069;51.970;5.892;2022-12-18T06:43:51;39.17;;;31.23;;
47337;SDS011;33069;51.970;5.892;2022-12-18T06:46:17;42.15;;;29.42;;
47337;SDS011;33069;51.970;5.892;2022-12-18T06:48:46;41.65;;;30.67;;
47337;SDS011;33069;51.970;5.892;2022-12-18T06:51:15;39.80;;;30.00;;
47337;SDS011;33069;51.970;5.892;2022-12-18T06:53:44;41.55;;;31.65;;
47337;SDS011;33069;51.970;5.892;2022-12-18T06:56:10;44.65;;;33.22;;
47337;SDS011;33069;51.970;5.892;2022-12-18T06:58:36;38.70;;;30.20;;
47337;SDS011;33069;51.970;5.892;2022-12-18T07:01:03;36.60;;;30.23;;
47337;SDS011;33069;51.970;5.892;2022-12-18T07:03:30;43.03;;;31.65;;
47337;SDS011;33069;51.970;5.892;2022-12-18T07:05:56;39.22;;;29.88;;
47337;SDS011;33069;51.970;5.892;2022-12-18T07:08:21;40.30;;;31.23;;
47337;SDS011;33069;51.970;5.892;2022-12-18T07:10:47;47.35;;;33.47;;
47337;SDS011;33069;51.970;5.892;2022-12-18T07:13:14;44.30;;;31.58;;
47337;SDS011;33069;51.970;5.892;2022-12-18T07:15:42;42.35;;;30.70;;
47337;SDS011;33069;51.970;5.892;2022-12-18T07:18:08;39.78;;;30.13;;
47337;SDS011;33069;51.970;5.892;2022-12-18T07:20:34;38.92;;;28.98;;
47337;SDS011;33069;51.970;5.892;2022-12-18T07:23:03;41.35;;;31.20;;
47337;SDS011;33069;51.970;5.892;2022-12-18T07:25:33;43.70;;;32.72;;
47337;SDS011;33069;51.970;5.892;2022-12-18T07:28:02;41.75;;;30.52;;
47337;SDS011;33069;51.970;5.892;2022-12-18T07:30:28;38.22;;;31.52;;
47337;SDS011;33069;51.970;5.892;2022-12-18T07:32:54;44.13;;;31.38;;
47337;SDS011;33069;51.970;5.892;2022-12-18T07:35:20;43.08;;;32.40;;
47337;SDS011;33069;51.970;5.892;2022-12-18T07:37:45;39.35;;;32.28;;
47337;SDS011;33069;51.970;5.892;2022-12-18T07:40:11;38.63;;;31.20;;
47337;SDS011;33069;51.970;5.892;2022-12-18T07:42:37;34.80;;;29.77;;
47337;SDS011;33069;51.970;5.892;2022-12-18T07:45:03;38.17;;;30.50;;
47337;SDS011;33069;51.970;5.892;2022-12-18T07:47:29;40.67;;;30.38;;
47337;SDS011;33069;51.970;5.892;2022-12-18T07:49:55;39.53;;;32.20;;
47337;SDS011;33069;51.970;5.892;2022-12-18T07:52:20;38.78;;;30.05;;
47337;SDS011;33069;51.970;5.892;2022-12-18T07:54:46;35.83;;;29.65;;
47337;SDS011;33069;51.970;5.892;2022-12-18T07:57:14;35.60;;;30.70;;
47337;SDS011;33069;51.970;5.892;2022-12-18T07:59:40;35.75;;;29.38;;
47337;SDS011;33069;51.970;5.892;2022-12-18T08:02:06;35.17;;;28.30;;
47337;SDS011;33069;51.970;5.892;2022-12-18T08:04:32;34.45;;;29.02;;
47337;SDS011;33069;51.970;5.892;2022-12-18T08:07:00;36.88;;;29.38;;
47337;SDS011;33069;51.970;5.892;2022-12-18T08:09:25;34.17;;;29.25;;
47337;SDS011;33069;51.970;5.892;2022-12-18T08:11:51;36.78;;;30.42;;
47337;SDS011;33069;51.970;5.892;2022-12-18T08:14:17;38.85;;;29.55;;
47337;SDS011;33069;51.970;5.892;2022-12-18T08:16:42;36.15;;;29.23;;
47337;SDS011;33069;51.970;5.892;2022-12-18T08:19:09;36.35;;;29.20;;
47337;SDS011;33069;51.970;5.892;2022-12-18T08:21:35;33.05;;;29.13;;
47337;SDS011;33069;51.970;5.892;2022-12-18T08:24:02;34.90;;;28.55;;
47337;SDS011;33069;51.970;5.892;2022-12-18T08:26:29;37.47;;;29.35;;
47337;SDS011;33069;51.970;5.892;2022-12-18T08:28:56;39.53;;;28.45;;
47337;SDS011;33069;51.970;5.892;2022-12-18T08:31:23;35.70;;;27.92;;
47337;SDS011;33069;51.970;5.892;2022-12-18T08:33:50;36.17;;;28.73;;
47337;SDS011;33069;51.970;5.892;2022-12-18T08:36:17;36.22;;;28.33;;
47337;SDS011;33069;51.970;5.892;2022-12-18T08:38:44;35.85;;;28.15;;
47337;SDS011;33069;51.970;5.892;2022-12-18T08:41:10;32.85;;;27.40;;
47337;SDS011;33069;51.970;5.892;2022-12-18T08:43:38;31.83;;;26.45;;
47337;SDS011;33069;51.970;5.892;2022-12-18T08:46:23;32.10;;;26.95;;
47337;SDS011;33069;51.970;5.892;2022-12-18T08:48:51;29.95;;;26.73;;
47337;SDS011;33069;51.970;5.892;2022-12-18T08:51:18;33.08;;;27.92;;
47337;SDS011;33069;51.970;5.892;2022-12-18T08:53:44;33.00;;;26.90;;
47337;SDS011;33069;51.970;5.892;2022-12-18T08:56:11;32.38;;;26.42;;
47337;SDS011;33069;51.970;5.892;2022-12-18T08:58:37;32.45;;;26.02;;
47337;SDS011;33069;51.970;5.892;2022-12-18T09:01:04;31.48;;;27.15;;
47337;SDS011;33069;51.970;5.892;2022-12-18T09:03:32;32.72;;;27.95;;
47337;SDS011;33069;51.970;5.892;2022-12-18T09:05:58;29.65;;;25.40;;
47337;SDS011;33069;51.970;5.892;2022-12-18T09:08:24;30.30;;;25.92;;
47337;SDS011;33069;51.970;5.892;2022-12-18T09:10:51;28.45;;;25.35;;
47337;SDS011;33069;51.970;5.892;2022-12-18T09:13:17;33.45;;;26.88;;
47337;SDS011;33069;51.970;5.892;2022-12-18T09:15:50;30.85;;;26.92;;
47337;SDS011;33069;51.970;5.892;2022-12-18T09:20:44;30.33;;;26.23;;
47337;SDS011;33069;51.970;5.892;2022-12-18T09:23:10;40.05;;;27.98;;
47337;SDS011;33069;51.970;5.892;2022-12-18T09:25:37;30.38;;;25.77;;
47337;SDS011;33069;51.970;5.892;2022-12-18T09:28:04;32.70;;;25.23;;
47337;SDS011;33069;51.970;5.892;2022-12-18T09:30:38;29.02;;;26.08;;
47337;SDS011;33069;51.970;5.892;2022-12-18T09:33:04;29.95;;;26.63;;
47337;SDS011;33069;51.970;5.892;2022-12-18T09:38:39;29.63;;;26.60;;
47337;SDS011;33069;51.970;5.892;2022-12-18T09:43:57;30.27;;;26.67;;
47337;SDS011;33069;51.970;5.892;2022-12-18T09:46:27;31.20;;;27.35;;
47337;SDS011;33069;51.970;5.892;2022-12-18T09:48:56;29.95;;;27.10;;
47337;SDS011;33069;51.970;5.892;2022-12-18T09:51:29;30.88;;;27.90;;
47337;SDS011;33069;51.970;5.892;2022-12-18T09:54:03;31.33;;;28.10;;
47337;SDS011;33069;51.970;5.892;2022-12-18T09:56:35;30.77;;;27.63;;
47337;SDS011;33069;51.970;5.892;2022-12-18T09:59:04;32.35;;;26.63;;
47337;SDS011;33069;51.970;5.892;2022-12-18T10:01:31;31.92;;;28.55;;
47337;SDS011;33069;51.970;5.892;2022-12-18T10:03:57;30.17;;;26.73;;
47337;SDS011;33069;51.970;5.892;2022-12-18T10:06:41;29.98;;;26.95;;
47337;SDS011;33069;51.970;5.892;2022-12-18T10:09:28;31.52;;;28.23;;
47337;SDS011;33069;51.970;5.892;2022-12-18T10:14:38;32.22;;;28.63;;
47337;SDS011;33069;51.970;5.892;2022-12-18T10:17:45;32.03;;;28.25;;
47337;SDS011;33069;51.970;5.892;2022-12-18T10:20:03;28.98;;;25.85;;
47337;SDS011;33069;51.970;5.892;2022-12-18T10:22:51;30.83;;;26.65;;
47337;SDS011;33069;51.970;5.892;2022-12-18T10:28:20;28.90;;;26.05;;
47337;SDS011;33069;51.970;5.892;2022-12-18T10:30:46;31.63;;;28.27;;
47337;SDS011;33069;51.970;5.892;2022-12-18T10:33:16;30.25;;;27.25;;
47337;SDS011;33069;51.970;5.892;2022-12-18T10:35:45;30.58;;;27.42;;
47337;SDS011;33069;51.970;5.892;2022-12-18T10:43:47;30.23;;;27.17;;
47337;SDS011;33069;51.970;5.892;2022-12-18T10:46:16;29.45;;;26.45;;
47337;SDS011;33069;51.970;5.892;2022-12-18T10:48:50;29.23;;;26.23;;
47337;SDS011;33069;51.970;5.892;2022-12-18T10:51:35;29.23;;;26.05;;
47337;SDS011;33069;51.970;5.892;2022-12-18T10:54:16;28.20;;;25.45;;
47337;SDS011;33069;51.970;5.892;2022-12-18T10:56:44;28.70;;;25.58;;
47337;SDS011;33069;51.970;5.892;2022-12-18T10:59:11;29.05;;;26.05;;
47337;SDS011;33069;51.970;5.892;2022-12-18T11:01:56;28.80;;;26.00;;
47337;SDS011;33069;51.970;5.892;2022-12-18T11:07:00;28.67;;;25.90;;
47337;SDS011;33069;51.970;5.892;2022-12-18T11:12:04;29.83;;;26.05;;
47337;SDS011;33069;51.970;5.892;2022-12-18T11:14:50;30.48;;;27.33;;
47337;SDS011;33069;51.970;5.892;2022-12-18T11:17:22;29.85;;;26.65;;
47337;SDS011;33069;51.970;5.892;2022-12-18T11:19:56;33.38;;;27.70;;
47337;SDS011;33069;51.970;5.892;2022-12-18T11:22:27;29.13;;;26.13;;
47337;SDS011;33069;51.970;5.892;2022-12-18T11:24:56;28.98;;;26.05;;
47337;SDS011;33069;51.970;5.892;2022-12-18T11:27:27;28.17;;;25.23;;
47337;SDS011;33069;51.970;5.892;2022-12-18T11:30:06;30.02;;;26.83;;
47337;SDS011;33069;51.970;5.892;2022-12-18T11:32:47;28.88;;;26.05;;
47337;SDS011;33069;51.970;5.892;2022-12-18T11:38:23;29.70;;;26.42;;
47337;SDS011;33069;51.970;5.892;2022-12-18T11:41:05;32.40;;;28.92;;
47337;SDS011;33069;51.970;5.892;2022-12-18T11:43:38;30.50;;;27.58;;
47337;SDS011;33069;51.970;5.892;2022-12-18T11:46:15;28.80;;;25.70;;
47337;SDS011;33069;51.970;5.892;2022-12-18T11:48:56;32.13;;;28.90;;
47337;SDS011;33069;51.970;5.892;2022-12-18T11:51:38;30.48;;;27.33;;
47337;SDS011;33069;51.970;5.892;2022-12-18T11:54:13;31.00;;;28.02;;
47337;SDS011;33069;51.970;5.892;2022-12-18T11:56:58;31.17;;;27.88;;
47337;SDS011;33069;51.970;5.892;2022-12-18T12:09:01;31.20;;;27.95;;
47337;SDS011;33069;51.970;5.892;2022-12-18T12:11:13;31.60;;;26.90;;
47337;SDS011;33069;51.970;5.892;2022-12-18T12:19:30;30.55;;;27.15;;
47337;SDS011;33069;51.970;5.892;2022-12-18T12:24:49;29.83;;;26.10;;
47337;SDS011;33069;51.970;5.892;2022-12-18T12:27:38;29.58;;;26.48;;
47337;SDS011;33069;51.970;5.892;2022-12-18T12:30:19;32.25;;;26.25;;
47337;SDS011;33069;51.970;5.892;2022-12-18T12:35:52;30.50;;;27.30;;
47337;SDS011;33069;51.970;5.892;2022-12-18T12:38:26;32.00;;;27.88;;
47337;SDS011;33069;51.970;5.892;2022-12-18T12:40:58;30.85;;;27.55;;
47337;SDS011;33069;51.970;5.892;2022-12-18T12:43:55;31.55;;;27.50;;
47337;SDS011;33069;51.970;5.892;2022-12-18T12:46:23;34.15;;;28.55;;
47337;SDS011;33069;51.970;5.892;2022-12-18T12:49:01;33.45;;;28.95;;
47337;SDS011;33069;51.970;5.892;2022-12-18T12:51:34;31.70;;;28.33;;
47337;SDS011;33069;51.970;5.892;2022-12-18T12:54:04;31.65;;;27.98;;
47337;SDS011;33069;51.970;5.892;2022-12-18T12:56:39;33.08;;;28.52;;
47337;SDS011;33069;51.970;5.892;2022-12-18T13:07:35;34.03;;;30.52;;
47337;SDS011;33069;51.970;5.892;2022-12-18T13:10:14;31.27;;;27.90;;
47337;SDS011;33069;51.970;5.892;2022-12-18T13:12:58;33.28;;;29.70;;
47337;SDS011;33069;51.970;5.892;2022-12-18T13:20:39;33.38;;;29.88;;
47337;SDS011;33069;51.970;5.892;2022-12-18T13:25:48;31.10;;;27.73;;
47337;SDS011;33069;51.970;5.892;2022-12-18T13:31:13;31.83;;;28.80;;
47337;SDS011;33069;51.970;5.892;2022-12-18T13:36:13;34.58;;;30.85;;
47337;SDS011;33069;51.970;5.892;2022-12-18T13:38:39;33.67;;;27.33;;
47337;SDS011;33069;51.970;5.892;2022-12-18T13:43:49;37.38;;;28.67;;
47337;SDS011;33069;51.970;5.892;2022-12-18T13:48:51;32.50;;;29.30;;
47337;SDS011;33069;51.970;5.892;2022-12-18T13:51:23;33.13;;;29.20;;
47337;SDS011;33069;51.970;5.892;2022-12-18T13:53:54;33.25;;;29.60;;
47337;SDS011;33069;51.970;5.892;2022-12-18T13:56:26;30.45;;;27.15;;
47337;SDS011;33069;51.970;5.892;2022-12-18T13:59:05;31.63;;;28.17;;
47337;SDS011;33069;51.970;5.892;2022-12-18T14:02:00;29.98;;;26.77;;
47337;SDS011;33069;51.970;5.892;2022-12-18T14:04:33;30.67;;;27.42;;
47337;SDS011;33069;51.970;5.892;2022-12-18T14:09:29;37.15;;;28.50;;
47337;SDS011;33069;51.970;5.892;2022-12-18T14:11:59;30.73;;;27.35;;
47337;SDS011;33069;51.970;5.892;2022-12-18T14:14:47;32.15;;;27.73;;
47337;SDS011;33069;51.970;5.892;2022-12-18T14:17:16;32.47;;;28.35;;
47337;SDS011;33069;51.970;5.892;2022-12-18T14:19:46;32.42;;;26.33;;
47337;SDS011;33069;51.970;5.892;2022-12-18T14:22:22;38.10;;;28.90;;
47337;SDS011;33069;51.970;5.892;2022-12-18T14:27:42;36.22;;;27.02;;
47337;SDS011;33069;51.970;5.892;2022-12-18T14:30:38;33.47;;;29.50;;
47337;SDS011;33069;51.970;5.892;2022-12-18T14:33:09;33.97;;;28.25;;
47337;SDS011;33069;51.970;5.892;2022-12-18T14:35:37;34.03;;;28.63;;
47337;SDS011;33069;51.970;5.892;2022-12-18T14:40:46;33.47;;;27.63;;
47337;SDS011;33069;51.970;5.892;2022-12-18T14:43:12;31.83;;;26.98;;
47337;SDS011;33069;51.970;5.892;2022-12-18T14:45:42;31.90;;;28.35;;
47337;SDS011;33069;51.970;5.892;2022-12-18T14:48:19;31.02;;;26.88;;
47337;SDS011;33069;51.970;5.892;2022-12-18T14:50:54;33.30;;;28.63;;
47337;SDS011;33069;51.970;5.892;2022-12-18T14:53:44;33.25;;;29.45;;
47337;SDS011;33069;51.970;5.892;2022-12-18T14:58:58;32.75;;;28.48;;
47337;SDS011;33069;51.970;5.892;2022-12-18T15:01:32;32.20;;;28.02;;
47337;SDS011;33069;51.970;5.892;2022-12-18T15:04:05;35.38;;;26.95;;
47337;SDS011;33069;51.970;5.892;2022-12-18T15:06:47;32.97;;;26.80;;
47337;SDS011;33069;51.970;5.892;2022-12-18T15:09:23;34.63;;;27.02;;
47337;SDS011;33069;51.970;5.892;2022-12-18T15:11:54;36.97;;;28.63;;
47337;SDS011;33069;51.970;5.892;2022-12-18T15:20:08;29.45;;;24.95;;
47337;SDS011;33069;51.970;5.892;2022-12-18T15:22:35;33.65;;;26.35;;
47337;SDS011;33069;51.970;5.892;2022-12-18T15:25:03;30.10;;;25.48;;
47337;SDS011;33069;51.970;5.892;2022-12-18T15:27:47;31.23;;;25.52;;
47337;SDS011;33069;51.970;5.892;2022-12-18T15:30:18;33.22;;;25.77;;
47337;SDS011;33069;51.970;5.892;2022-12-18T15:32:46;35.90;;;26.92;;
47337;SDS011;33069;51.970;5.892;2022-12-18T15:35:24;32.10;;;25.30;;
47337;SDS011;33069;51.970;5.892;2022-12-18T15:37:50;30.35;;;25.25;;
47337;SDS011;33069;51.970;5.892;2022-12-18T15:40:20;31.92;;;26.98;;
47337;SDS011;33069;51.970;5.892;2022-12-18T15:42:47;37.85;;;26.73;;
47337;SDS011;33069;51.970;5.892;2022-12-18T15:45:34;32.65;;;27.50;;
47337;SDS011;33069;51.970;5.892;2022-12-18T15:48:00;33.72;;;28.45;;
47337;SDS011;33069;51.970;5.892;2022-12-18T15:50:26;33.25;;;29.00;;
47337;SDS011;33069;51.970;5.892;2022-12-18T15:52:52;34.35;;;28.02;;
47337;SDS011;33069;51.970;5.892;2022-12-18T15:55:21;31.77;;;26.83;;
47337;SDS011;33069;51.970;5.892;2022-12-18T15:58:08;35.60;;;28.27;;
47337;SDS011;33069;51.970;5.892;2022-12-18T16:00:35;35.83;;;29.88;;
47337;SDS011;33069;51.970;5.892;2022-12-18T16:03:03;35.88;;;31.00;;
47337;SDS011;33069;51.970;5.892;2022-12-18T16:05:29;34.05;;;28.85;;
47337;SDS011;33069;51.970;5.892;2022-12-18T16:07:56;41.28;;;28.88;;
47337;SDS011;33069;51.970;5.892;2022-12-18T16:10:23;37.22;;;30.27;;
47337;SDS011;33069;51.970;5.892;2022-12-18T16:12:49;36.40;;;29.25;;
47337;SDS011;33069;51.970;5.892;2022-12-18T16:15:15;37.17;;;29.33;;
47337;SDS011;33069;51.970;5.892;2022-12-18T16:17:42;34.17;;;28.52;;
47337;SDS011;33069;51.970;5.892;2022-12-18T16:20:12;38.10;;;29.98;;
47337;SDS011;33069;51.970;5.892;2022-12-18T16:22:43;40.95;;;30.13;;
47337;SDS011;33069;51.970;5.892;2022-12-18T16:25:20;46.70;;;32.55;;
47337;SDS011;33069;51.970;5.892;2022-12-18T16:27:48;35.70;;;29.92;;
47337;SDS011;33069;51.970;5.892;2022-12-18T16:30:15;39.42;;;30.63;;
47337;SDS011;33069;51.970;5.892;2022-12-18T16:32:42;40.17;;;31.42;;
47337;SDS011;33069;51.970;5.892;2022-12-18T16:35:09;41.75;;;31.05;;
47337;SDS011;33069;51.970;5.892;2022-12-18T16:37:36;36.78;;;29.25;;
47337;SDS011;33069;51.970;5.892;2022-12-18T16:40:02;43.78;;;30.20;;
47337;SDS011;33069;51.970;5.892;2022-12-18T16:42:28;36.97;;;29.40;;
47337;SDS011;33069;51.970;5.892;2022-12-18T16:44:54;41.38;;;30.20;;
47337;SDS011;33069;51.970;5.892;2022-12-18T16:47:20;35.95;;;29.58;;
47337;SDS011;33069;51.970;5.892;2022-12-18T16:49:45;43.88;;;31.98;;
47337;SDS011;33069;51.970;5.892;2022-12-18T16:52:13;160.57;;;85.28;;
47337;SDS011;33069;51.970;5.892;2022-12-18T16:54:39;39.45;;;30.92;;
47337;SDS011;33069;51.970;5.892;2022-12-18T16:57:05;36.45;;;30.23;;